Newburg, Illinois
Current Conditions -  °F | °C
As of 10:54 AM on Sunday 23 Nov 2014 (Local Time) from KDEC Reporting Station
Overcast Overcast  
Wind Chill: 54°   Ceiling: 1600
Heat Index: 54°   Visibility: 10mi
Dew Point: 47°   Wind: 15mph
Humidity: 77%   Direction: 160°SSE
Pressure: 29.66"   Gusts: NA
Location:  40.0084°N, 88.8268°W
Report Text: KDEC 231654Z 16013KT 10SM OVC016 12/08 A2966 RMK AO2 SLP043 T01220083
Loading
Personal Weather Stations






























Interactive Weather Map New forecast layout! Learn more

10-Day Weather Forecast

Advertisements
Track Severe Weather on mobile